BQ1 weather

Gilliam-Mc Connell Airfield
Carthage, North Carolina, United States

Public forecast

Using degrees Fahrenheit for public forecast. Weather courtesy of forecast.io.

METAR (pilot weather report)

Closest report is Moore County Airport, 6.7 nm (12.3 km) SSE. Retrieved 2019/05/25 05:56 UTC (57 minutes ago):

KSOP 250556Z AUTO 00000KT 10SM CLR 22/21 A3006 RMK AO2 SLP189 T02170211 10311 20217 58010 PWINO

TAF (pilot weather forecast)

Closest forecast is Pope Field, 23.1 nm (42.8 km) ESE. Retrieved 2019/05/25 01:26 UTC (5 hours ago):

TAF KPOB 250100Z 2501/2607 32005KT 9999 FEW060 QNH3001INS BECMG 2508/2509 06007KT 9999 SCT015 BKN030 QNH3005INS BECMG 2515/2516 10008KT 9999 SCT030 BKN060 QNH3004INS BECMG 2523/2524 16009KT 9999 VCTS BKN035CB BKN120 BKN250 QNH3006INS TX34/2520Z TN21/2511Z